sensor_id;sensor_type;location;lat;lon;timestamp;temperature;humidity
84432;DHT22;74658;51.736;7.038;2024-02-23T00:03:17;5.4;
84432;DHT22;74658;51.736;7.038;2024-02-23T00:08:18;5.4;
84432;DHT22;74658;51.736;7.038;2024-02-23T00:13:19;5.3;
84432;DHT22;74658;51.736;7.038;2024-02-23T00:18:19;5.2;
84432;DHT22;74658;51.736;7.038;2024-02-23T00:23:20;5;
84432;DHT22;74658;51.736;7.038;2024-02-23T00:28:20;4.9;
84432;DHT22;74658;51.736;7.038;2024-02-23T00:33:21;4.8;
84432;DHT22;74658;51.736;7.038;2024-02-23T00:38:22;4.6;
84432;DHT22;74658;51.736;7.038;2024-02-23T00:43:22;4.7;
84432;DHT22;74658;51.736;7.038;2024-02-23T00:48:23;4.7;
84432;DHT22;74658;51.736;7.038;2024-02-23T00:53:23;4.7;
84432;DHT22;74658;51.736;7.038;2024-02-23T00:58:24;4.7;
84432;DHT22;74658;51.736;7.038;2024-02-23T01:03:24;4.6;
84432;DHT22;74658;51.736;7.038;2024-02-23T01:08:25;4.6;
84432;DHT22;74658;51.736;7.038;2024-02-23T01:13:26;4.6;
84432;DHT22;74658;51.736;7.038;2024-02-23T01:18:26;4.7;
84432;DHT22;74658;51.736;7.038;2024-02-23T01:23:27;4.6;
84432;DHT22;74658;51.736;7.038;2024-02-23T01:28:28;4.7;
84432;DHT22;74658;51.736;7.038;2024-02-23T01:33:28;4.7;
84432;DHT22;74658;51.736;7.038;2024-02-23T01:38:29;4.7;
84432;DHT22;74658;51.736;7.038;2024-02-23T01:43:29;4.7;
84432;DHT22;74658;51.736;7.038;2024-02-23T01:48:31;4.8;
84432;DHT22;74658;51.736;7.038;2024-02-23T01:53:30;4.9;
84432;DHT22;74658;51.736;7.038;2024-02-23T01:58:33;5;
84432;DHT22;74658;51.736;7.038;2024-02-23T02:03:32;5;
84432;DHT22;74658;51.736;7.038;2024-02-23T02:08:33;5.1;
84432;DHT22;74658;51.736;7.038;2024-02-23T02:13:33;5.1;
84432;DHT22;74658;51.736;7.038;2024-02-23T02:18:33;5.2;
84432;DHT22;74658;51.736;7.038;2024-02-23T02:23:34;5.2;
84432;DHT22;74658;51.736;7.038;2024-02-23T02:28:35;5.3;
84432;DHT22;74658;51.736;7.038;2024-02-23T02:33:35;5.1;
84432;DHT22;74658;51.736;7.038;2024-02-23T02:38:36;5.2;
84432;DHT22;74658;51.736;7.038;2024-02-23T02:43:37;5.2;
84432;DHT22;74658;51.736;7.038;2024-02-23T02:48:37;5.3;
84432;DHT22;74658;51.736;7.038;2024-02-23T02:53:38;5.4;
84432;DHT22;74658;51.736;7.038;2024-02-23T02:58:38;5.4;
84432;DHT22;74658;51.736;7.038;2024-02-23T03:03:39;5.4;
84432;DHT22;74658;51.736;7.038;2024-02-23T03:08:42;5.5;
84432;DHT22;74658;51.736;7.038;2024-02-23T03:13:40;5.5;
84432;DHT22;74658;51.736;7.038;2024-02-23T03:18:42;5.5;
84432;DHT22;74658;51.736;7.038;2024-02-23T03:23:41;5.3;
84432;DHT22;74658;51.736;7.038;2024-02-23T03:28:42;5.3;
84432;DHT22;74658;51.736;7.038;2024-02-23T03:33:43;5.2;
84432;DHT22;74658;51.736;7.038;2024-02-23T03:38:43;5.2;
84432;DHT22;74658;51.736;7.038;2024-02-23T03:43:44;5.2;
84432;DHT22;74658;51.736;7.038;2024-02-23T03:48:45;5.2;
84432;DHT22;74658;51.736;7.038;2024-02-23T03:53:45;5.3;
84432;DHT22;74658;51.736;7.038;2024-02-23T03:58:46;5.3;
84432;DHT22;74658;51.736;7.038;2024-02-23T04:03:46;5.3;
84432;DHT22;74658;51.736;7.038;2024-02-23T04:08:47;5.3;
84432;DHT22;74658;51.736;7.038;2024-02-23T04:13:48;5.4;
84432;DHT22;74658;51.736;7.038;2024-02-23T04:18:48;5.4;
84432;DHT22;74658;51.736;7.038;2024-02-23T04:23:49;5.4;
84432;DHT22;74658;51.736;7.038;2024-02-23T04:28:49;5.3;
84432;DHT22;74658;51.736;7.038;2024-02-23T04:33:50;5.4;
84432;DHT22;74658;51.736;7.038;2024-02-23T04:38:51;5.4;
84432;DHT22;74658;51.736;7.038;2024-02-23T04:43:51;5.4;
84432;DHT22;74658;51.736;7.038;2024-02-23T04:48:53;5.4;
84432;DHT22;74658;51.736;7.038;2024-02-23T04:53:52;5.3;
84432;DHT22;74658;51.736;7.038;2024-02-23T04:58:53;5.4;
84432;DHT22;74658;51.736;7.038;2024-02-23T05:03:54;5.5;
84432;DHT22;74658;51.736;7.038;2024-02-23T05:08:54;5.5;
84432;DHT22;74658;51.736;7.038;2024-02-23T05:13:55;5.6;
84432;DHT22;74658;51.736;7.038;2024-02-23T05:18:56;5.6;
84432;DHT22;74658;51.736;7.038;2024-02-23T05:23:56;5.6;
84432;DHT22;74658;51.736;7.038;2024-02-23T05:28:57;5.7;
84432;DHT22;74658;51.736;7.038;2024-02-23T05:33:57;5.6;
84432;DHT22;74658;51.736;7.038;2024-02-23T05:38:58;5.6;
84432;DHT22;74658;51.736;7.038;2024-02-23T05:43:58;5.6;
84432;DHT22;74658;51.736;7.038;2024-02-23T05:48:59;5.7;
84432;DHT22;74658;51.736;7.038;2024-02-23T05:54:00;5.7;
84432;DHT22;74658;51.736;7.038;2024-02-23T05:59:00;5.6;
84432;DHT22;74658;51.736;7.038;2024-02-23T06:04:01;5.6;
84432;DHT22;74658;51.736;7.038;2024-02-23T06:09:02;5.6;
84432;DHT22;74658;51.736;7.038;2024-02-23T06:14:02;5.6;
84432;DHT22;74658;51.736;7.038;2024-02-23T06:19:03;5.6;
84432;DHT22;74658;51.736;7.038;2024-02-23T06:24:04;5.5;
84432;DHT22;74658;51.736;7.038;2024-02-23T06:29:04;5.5;
84432;DHT22;74658;51.736;7.038;2024-02-23T06:34:04;5.5;
84432;DHT22;74658;51.736;7.038;2024-02-23T06:39:05;5.4;
84432;DHT22;74658;51.736;7.038;2024-02-23T06:44:06;5.4;
84432;DHT22;74658;51.736;7.038;2024-02-23T06:49:06;5.4;
84432;DHT22;74658;51.736;7.038;2024-02-23T06:54:07;5.3;
84432;DHT22;74658;51.736;7.038;2024-02-23T06:59:07;5.4;
84432;DHT22;74658;51.736;7.038;2024-02-23T07:04:08;5.5;
84432;DHT22;74658;51.736;7.038;2024-02-23T07:09:09;5.5;
84432;DHT22;74658;51.736;7.038;2024-02-23T07:14:09;5.5;
84432;DHT22;74658;51.736;7.038;2024-02-23T07:19:11;5.7;
84432;DHT22;74658;51.736;7.038;2024-02-23T07:24:10;5.8;
84432;DHT22;74658;51.736;7.038;2024-02-23T07:29:11;5.9;
84432;DHT22;74658;51.736;7.038;2024-02-23T07:34:12;5.9;
84432;DHT22;74658;51.736;7.038;2024-02-23T07:39:13;6.2;
84432;DHT22;74658;51.736;7.038;2024-02-23T07:44:13;6.1;
84432;DHT22;74658;51.736;7.038;2024-02-23T07:49:14;6.2;
84432;DHT22;74658;51.736;7.038;2024-02-23T07:54:14;6.3;
84432;DHT22;74658;51.736;7.038;2024-02-23T07:59:15;6.5;
84432;DHT22;74658;51.736;7.038;2024-02-23T08:04:15;6.7;
84432;DHT22;74658;51.736;7.038;2024-02-23T08:09:16;6.5;
84432;DHT22;74658;51.736;7.038;2024-02-23T08:14:16;6.4;
84432;DHT22;74658;51.736;7.038;2024-02-23T08:19:17;6.6;
84432;DHT22;74658;51.736;7.038;2024-02-23T08:24:18;6.7;
84432;DHT22;74658;51.736;7.038;2024-02-23T08:29:18;6.9;
84432;DHT22;74658;51.736;7.038;2024-02-23T08:34:19;6.9;
84432;DHT22;74658;51.736;7.038;2024-02-23T08:39:20;6.9;
84432;DHT22;74658;51.736;7.038;2024-02-23T08:44:20;7.8;
84432;DHT22;74658;51.736;7.038;2024-02-23T08:49:21;7.6;
84432;DHT22;74658;51.736;7.038;2024-02-23T08:54:21;9.1;
84432;DHT22;74658;51.736;7.038;2024-02-23T08:59:22;8.3;
84432;DHT22;74658;51.736;7.038;2024-02-23T09:04:23;7.5;
84432;DHT22;74658;51.736;7.038;2024-02-23T09:09:23;7.1;
84432;DHT22;74658;51.736;7.038;2024-02-23T09:14:24;6.9;
84432;DHT22;74658;51.736;7.038;2024-02-23T09:19:24;7;
84432;DHT22;74658;51.736;7.038;2024-02-23T09:24:25;6.9;
84432;DHT22;74658;51.736;7.038;2024-02-23T09:29:26;7;
84432;DHT22;74658;51.736;7.038;2024-02-23T09:34:26;6.9;
84432;DHT22;74658;51.736;7.038;2024-02-23T09:39:27;6.9;
84432;DHT22;74658;51.736;7.038;2024-02-23T09:44:32;7;
84432;DHT22;74658;51.736;7.038;2024-02-23T09:49:28;7;
84432;DHT22;74658;51.736;7.038;2024-02-23T09:54:28;7.1;
84432;DHT22;74658;51.736;7.038;2024-02-23T09:59:30;7.2;
84432;DHT22;74658;51.736;7.038;2024-02-23T10:04:30;7.2;
84432;DHT22;74658;51.736;7.038;2024-02-23T10:09:30;7.1;
84432;DHT22;74658;51.736;7.038;2024-02-23T10:14:31;7.2;
84432;DHT22;74658;51.736;7.038;2024-02-23T10:19:33;7.3;
84432;DHT22;74658;51.736;7.038;2024-02-23T10:24:32;7.5;
84432;DHT22;74658;51.736;7.038;2024-02-23T10:29:33;7.4;
84432;DHT22;74658;51.736;7.038;2024-02-23T10:34:34;7.4;
84432;DHT22;74658;51.736;7.038;2024-02-23T10:39:36;7.5;
84432;DHT22;74658;51.736;7.038;2024-02-23T10:44:35;7.6;
84432;DHT22;74658;51.736;7.038;2024-02-23T10:49:36;7.5;
84432;DHT22;74658;51.736;7.038;2024-02-23T10:54:36;7.6;
84432;DHT22;74658;51.736;7.038;2024-02-23T10:59:38;7.6;
84432;DHT22;74658;51.736;7.038;2024-02-23T11:04:38;7.6;
84432;DHT22;74658;51.736;7.038;2024-02-23T11:09:38;7.6;
84432;DHT22;74658;51.736;7.038;2024-02-23T11:14:38;7.6;
84432;DHT22;74658;51.736;7.038;2024-02-23T11:19:39;7.6;
84432;DHT22;74658;51.736;7.038;2024-02-23T11:24:43;7.7;
84432;DHT22;74658;51.736;7.038;2024-02-23T11:29:40;7.7;
84432;DHT22;74658;51.736;7.038;2024-02-23T11:34:41;7.7;
84432;DHT22;74658;51.736;7.038;2024-02-23T11:39:42;7.7;
84432;DHT22;74658;51.736;7.038;2024-02-23T11:44:42;7.8;
84432;DHT22;74658;51.736;7.038;2024-02-23T11:49:43;7.8;
84432;DHT22;74658;51.736;7.038;2024-02-23T11:54:44;7.9;
84432;DHT22;74658;51.736;7.038;2024-02-23T11:59:44;8;
84432;DHT22;74658;51.736;7.038;2024-02-23T12:04:44;8;
84432;DHT22;74658;51.736;7.038;2024-02-23T12:09:45;7.7;
84432;DHT22;74658;51.736;7.038;2024-02-23T12:14:46;7.8;
84432;DHT22;74658;51.736;7.038;2024-02-23T12:19:46;7.8;
84432;DHT22;74658;51.736;7.038;2024-02-23T12:24:47;7.7;
84432;DHT22;74658;51.736;7.038;2024-02-23T12:29:51;7.7;
84432;DHT22;74658;51.736;7.038;2024-02-23T12:34:48;7.6;
84432;DHT22;74658;51.736;7.038;2024-02-23T12:39:49;7.6;
84432;DHT22;74658;51.736;7.038;2024-02-23T12:44:49;7.6;
84432;DHT22;74658;51.736;7.038;2024-02-23T12:49:50;7.8;
84432;DHT22;74658;51.736;7.038;2024-02-23T12:54:50;7.8;
84432;DHT22;74658;51.736;7.038;2024-02-23T12:59:51;7.9;
84432;DHT22;74658;51.736;7.038;2024-02-23T13:04:52;7.9;
84432;DHT22;74658;51.736;7.038;2024-02-23T13:09:52;7.8;
84432;DHT22;74658;51.736;7.038;2024-02-23T13:14:53;7.6;
84432;DHT22;74658;51.736;7.038;2024-02-23T13:19:53;7.4;
84432;DHT22;74658;51.736;7.038;2024-02-23T13:24:54;7.5;
84432;DHT22;74658;51.736;7.038;2024-02-23T13:29:55;7.5;
84432;DHT22;74658;51.736;7.038;2024-02-23T13:34:55;7.6;
84432;DHT22;74658;51.736;7.038;2024-02-23T13:39:56;7.6;
84432;DHT22;74658;51.736;7.038;2024-02-23T13:44:56;7.6;
84432;DHT22;74658;51.736;7.038;2024-02-23T13:49:57;7.7;
84432;DHT22;74658;51.736;7.038;2024-02-23T13:54:58;7.8;
84432;DHT22;74658;51.736;7.038;2024-02-23T13:59:58;8;
84432;DHT22;74658;51.736;7.038;2024-02-23T14:05:01;8;
84432;DHT22;74658;51.736;7.038;2024-02-23T14:10:00;7.8;
84432;DHT22;74658;51.736;7.038;2024-02-23T14:15:00;7.8;
84432;DHT22;74658;51.736;7.038;2024-02-23T14:20:01;7.8;
84432;DHT22;74658;51.736;7.038;2024-02-23T14:25:01;7.8;
84432;DHT22;74658;51.736;7.038;2024-02-23T14:30:02;7.7;
84432;DHT22;74658;51.736;7.038;2024-02-23T14:35:03;7.3;
84432;DHT22;74658;51.736;7.038;2024-02-23T14:40:04;7.5;
84432;DHT22;74658;51.736;7.038;2024-02-23T14:40:04;7.5;
84432;DHT22;74658;51.736;7.038;2024-02-23T14:45:05;7.6;
84432;DHT22;74658;51.736;7.038;2024-02-23T14:50:06;7.8;
84432;DHT22;74658;51.736;7.038;2024-02-23T14:55:05;7.9;
84432;DHT22;74658;51.736;7.038;2024-02-23T15:00:07;8;
84432;DHT22;74658;51.736;7.038;2024-02-23T15:05:07;8.1;
84432;DHT22;74658;51.736;7.038;2024-02-23T15:10:07;8.2;
84432;DHT22;74658;51.736;7.038;2024-02-23T15:15:08;8.2;
84432;DHT22;74658;51.736;7.038;2024-02-23T15:20:08;8.3;
84432;DHT22;74658;51.736;7.038;2024-02-23T15:25:09;8.3;
84432;DHT22;74658;51.736;7.038;2024-02-23T15:30:09;8.4;
84432;DHT22;74658;51.736;7.038;2024-02-23T15:35:10;8.5;
84432;DHT22;74658;51.736;7.038;2024-02-23T15:40:11;8.6;
84432;DHT22;74658;51.736;7.038;2024-02-23T15:45:11;8.6;
84432;DHT22;74658;51.736;7.038;2024-02-23T15:50:11;8.6;
84432;DHT22;74658;51.736;7.038;2024-02-23T15:55:12;8.6;
84432;DHT22;74658;51.736;7.038;2024-02-23T16:00:13;8.6;
84432;DHT22;74658;51.736;7.038;2024-02-23T16:05:13;7.7;
84432;DHT22;74658;51.736;7.038;2024-02-23T16:10:14;7.2;
84432;DHT22;74658;51.736;7.038;2024-02-23T16:15:15;7.2;
84432;DHT22;74658;51.736;7.038;2024-02-23T16:20:15;7.2;
84432;DHT22;74658;51.736;7.038;2024-02-23T16:25:16;6.9;
84432;DHT22;74658;51.736;7.038;2024-02-23T16:30:16;6.8;
84432;DHT22;74658;51.736;7.038;2024-02-23T16:35:17;6.8;
84432;DHT22;74658;51.736;7.038;2024-02-23T16:40:19;6.9;
84432;DHT22;74658;51.736;7.038;2024-02-23T16:45:18;6.9;
84432;DHT22;74658;51.736;7.038;2024-02-23T16:50:19;7;
84432;DHT22;74658;51.736;7.038;2024-02-23T16:55:19;7.1;
84432;DHT22;74658;51.736;7.038;2024-02-23T17:00:20;7.1;
84432;DHT22;74658;51.736;7.038;2024-02-23T17:05:21;7.1;
84432;DHT22;74658;51.736;7.038;2024-02-23T17:10:21;7;
84432;DHT22;74658;51.736;7.038;2024-02-23T17:15:22;7;
84432;DHT22;74658;51.736;7.038;2024-02-23T17:20:22;6.9;
84432;DHT22;74658;51.736;7.038;2024-02-23T17:25:23;6.9;
84432;DHT22;74658;51.736;7.038;2024-02-23T17:30:24;6.8;
84432;DHT22;74658;51.736;7.038;2024-02-23T17:35:25;6.7;
84432;DHT22;74658;51.736;7.038;2024-02-23T17:40:25;6.4;
84432;DHT22;74658;51.736;7.038;2024-02-23T17:45:25;6.2;
84432;DHT22;74658;51.736;7.038;2024-02-23T17:50:26;6.1;
84432;DHT22;74658;51.736;7.038;2024-02-23T17:55:28;6.2;
84432;DHT22;74658;51.736;7.038;2024-02-23T18:00:27;6.1;
84432;DHT22;74658;51.736;7.038;2024-02-23T18:05:28;6.2;
84432;DHT22;74658;51.736;7.038;2024-02-23T18:10:29;6.3;
84432;DHT22;74658;51.736;7.038;2024-02-23T18:15:29;6.5;
84432;DHT22;74658;51.736;7.038;2024-02-23T18:20:30;6.4;
84432;DHT22;74658;51.736;7.038;2024-02-23T18:25:30;6.3;
84432;DHT22;74658;51.736;7.038;2024-02-23T18:30:31;6.2;
84432;DHT22;74658;51.736;7.038;2024-02-23T18:35:32;6.3;
84432;DHT22;74658;51.736;7.038;2024-02-23T18:40:32;6.2;
84432;DHT22;74658;51.736;7.038;2024-02-23T18:45:34;6.2;
84432;DHT22;74658;51.736;7.038;2024-02-23T18:50:35;6.2;
84432;DHT22;74658;51.736;7.038;2024-02-23T18:55:35;6.2;
84432;DHT22;74658;51.736;7.038;2024-02-23T19:00:36;6.2;
84432;DHT22;74658;51.736;7.038;2024-02-23T19:05:36;6.2;
84432;DHT22;74658;51.736;7.038;2024-02-23T19:10:37;6.2;
84432;DHT22;74658;51.736;7.038;2024-02-23T19:15:38;6.2;
84432;DHT22;74658;51.736;7.038;2024-02-23T19:20:38;6.3;
84432;DHT22;74658;51.736;7.038;2024-02-23T19:25:39;6.2;
84432;DHT22;74658;51.736;7.038;2024-02-23T19:30:39;6.2;
84432;DHT22;74658;51.736;7.038;2024-02-23T19:35:40;6.3;
84432;DHT22;74658;51.736;7.038;2024-02-23T19:40:41;6.3;
84432;DHT22;74658;51.736;7.038;2024-02-23T19:45:41;6.3;
84432;DHT22;74658;51.736;7.038;2024-02-23T19:50:42;6.3;
84432;DHT22;74658;51.736;7.038;2024-02-23T19:55:43;6.3;
84432;DHT22;74658;51.736;7.038;2024-02-23T20:00:43;6.3;
84432;DHT22;74658;51.736;7.038;2024-02-23T20:05:44;6.3;
84432;DHT22;74658;51.736;7.038;2024-02-23T20:10:45;6.6;
84432;DHT22;74658;51.736;7.038;2024-02-23T20:15:45;6.5;
84432;DHT22;74658;51.736;7.038;2024-02-23T20:20:46;6.5;
84432;DHT22;74658;51.736;7.038;2024-02-23T20:25:46;6.7;
84432;DHT22;74658;51.736;7.038;2024-02-23T20:30:47;6.7;
84432;DHT22;74658;51.736;7.038;2024-02-23T20:35:47;6.9;
84432;DHT22;74658;51.736;7.038;2024-02-23T20:40:48;7;
84432;DHT22;74658;51.736;7.038;2024-02-23T20:45:48;7.1;
84432;DHT22;74658;51.736;7.038;2024-02-23T20:50:49;7;
84432;DHT22;74658;51.736;7.038;2024-02-23T20:55:50;6.9;
84432;DHT22;74658;51.736;7.038;2024-02-23T21:00:50;6.8;
84432;DHT22;74658;51.736;7.038;2024-02-23T21:05:51;6.7;
84432;DHT22;74658;51.736;7.038;2024-02-23T21:10:52;6.8;
84432;DHT22;74658;51.736;7.038;2024-02-23T21:15:52;6.7;
84432;DHT22;74658;51.736;7.038;2024-02-23T21:20:53;6.6;
84432;DHT22;74658;51.736;7.038;2024-02-23T21:25:56;6.6;
84432;DHT22;74658;51.736;7.038;2024-02-23T21:30:54;6.5;
84432;DHT22;74658;51.736;7.038;2024-02-23T21:35:55;6.5;
84432;DHT22;74658;51.736;7.038;2024-02-23T21:40:55;6.5;
84432;DHT22;74658;51.736;7.038;2024-02-23T21:45:56;6.6;
84432;DHT22;74658;51.736;7.038;2024-02-23T21:50:57;6.5;
84432;DHT22;74658;51.736;7.038;2024-02-23T21:55:57;6.5;
84432;DHT22;74658;51.736;7.038;2024-02-23T22:00:58;6.5;
84432;DHT22;74658;51.736;7.038;2024-02-23T22:05:58;6.6;
84432;DHT22;74658;51.736;7.038;2024-02-23T22:10:59;6.5;
84432;DHT22;74658;51.736;7.038;2024-02-23T22:15:59;6.5;
84432;DHT22;74658;51.736;7.038;2024-02-23T22:21:01;6.4;
84432;DHT22;74658;51.736;7.038;2024-02-23T22:26:00;6.4;
84432;DHT22;74658;51.736;7.038;2024-02-23T22:31:02;6.2;
84432;DHT22;74658;51.736;7.038;2024-02-23T22:36:02;6.1;
84432;DHT22;74658;51.736;7.038;2024-02-23T22:41:03;6.1;
84432;DHT22;74658;51.736;7.038;2024-02-23T22:46:03;5.9;
84432;DHT22;74658;51.736;7.038;2024-02-23T22:51:04;6;
84432;DHT22;74658;51.736;7.038;2024-02-23T22:56:04;5.9;
84432;DHT22;74658;51.736;7.038;2024-02-23T23:01:06;5.9;
84432;DHT22;74658;51.736;7.038;2024-02-23T23:06:06;5.9;
84432;DHT22;74658;51.736;7.038;2024-02-23T23:11:06;5.9;
84432;DHT22;74658;51.736;7.038;2024-02-23T23:16:07;5.9;
84432;DHT22;74658;51.736;7.038;2024-02-23T23:21:07;6.1;
84432;DHT22;74658;51.736;7.038;2024-02-23T23:26:08;6.2;
84432;DHT22;74658;51.736;7.038;2024-02-23T23:31:08;6.3;
84432;DHT22;74658;51.736;7.038;2024-02-23T23:36:09;6.3;
84432;DHT22;74658;51.736;7.038;2024-02-23T23:41:10;6.3;
84432;DHT22;74658;51.736;7.038;2024-02-23T23:46:10;6.3;
84432;DHT22;74658;51.736;7.038;2024-02-23T23:51:11;6.2;
84432;DHT22;74658;51.736;7.038;2024-02-23T23:56:14;6.2;
